createdAt,value
2023-04-19T00:02:26.654Z,8.80
2023-04-19T00:07:28.845Z,8.80
2023-04-19T00:12:30.961Z,8.90
2023-04-19T00:17:34.083Z,8.90
2023-04-19T00:22:36.450Z,9.00
2023-04-19T00:27:38.531Z,9.00
2023-04-19T00:32:40.642Z,9.10
2023-04-19T00:37:42.798Z,9.20
2023-04-19T00:42:48.495Z,9.20
2023-04-19T00:47:51.041Z,9.30
2023-04-19T00:52:56.349Z,9.30
2023-04-19T00:58:00.733Z,9.40
2023-04-19T01:03:03.875Z,9.40
2023-04-19T01:08:06.354Z,9.40
2023-04-19T01:13:08.495Z,9.30
2023-04-19T01:18:14.136Z,9.20
2023-04-19T01:23:16.889Z,9.00
2023-04-19T01:28:19.003Z,8.80
2023-04-19T01:33:21.964Z,8.70
2023-04-19T01:38:24.602Z,8.50
2023-04-19T01:43:26.777Z,8.50
2023-04-19T01:48:29.274Z,8.50
2023-04-19T01:53:31.402Z,8.60
2023-04-19T01:58:33.554Z,8.50
2023-04-19T02:03:36.034Z,8.50
2023-04-19T02:08:38.813Z,8.40
2023-04-19T02:13:41.581Z,8.20
2023-04-19T02:18:43.753Z,8.20
2023-04-19T02:23:46.579Z,8.20
2023-04-19T02:28:50.646Z,8.30
2023-04-19T02:33:52.786Z,8.40
2023-04-19T02:38:54.952Z,8.50
2023-04-19T02:43:57.056Z,8.40
2023-04-19T02:49:01.268Z,8.50
2023-04-19T02:54:03.555Z,8.50
2023-04-19T02:59:06.278Z,8.50
2023-04-19T03:04:09.537Z,8.50
2023-04-19T03:09:12.076Z,8.50
2023-04-19T03:14:14.551Z,8.50
2023-04-19T03:19:16.901Z,8.50
2023-04-19T03:24:31.109Z,8.50
2023-04-19T03:29:38.710Z,8.50
2023-04-19T03:34:46.707Z,8.60
2023-04-19T03:39:51.255Z,8.70
2023-04-19T03:44:59.670Z,8.60
2023-04-19T03:50:04.702Z,8.70
2023-04-19T03:55:10.156Z,8.70
2023-04-19T04:00:15.824Z,8.80
2023-04-19T04:05:18.032Z,8.80
2023-04-19T04:10:20.402Z,8.80
2023-04-19T04:15:23.043Z,8.80
2023-04-19T04:20:28.632Z,8.80
2023-04-19T04:25:39.309Z,8.80
2023-04-19T04:30:46.085Z,8.70
2023-04-19T04:35:48.738Z,8.70
2023-04-19T04:40:57.027Z,8.70
2023-04-19T04:45:59.542Z,8.70
2023-04-19T04:51:06.203Z,8.90
2023-04-19T04:56:10.293Z,8.90
2023-04-19T05:01:12.478Z,9.00
2023-04-19T05:06:16.967Z,9.00
2023-04-19T05:11:20.491Z,9.10
2023-04-19T05:16:24.517Z,9.10
2023-04-19T05:21:29.646Z,9.10
2023-04-19T05:26:32.256Z,9.20
2023-04-19T05:31:35.395Z,9.20
2023-04-19T05:36:47.081Z,9.30
2023-04-19T05:41:50.836Z,9.30
2023-04-19T05:46:53.126Z,9.40
2023-04-19T05:52:15.390Z,9.40
2023-04-19T05:57:28.026Z,9.40
2023-04-19T06:02:31.060Z,9.40
2023-04-19T06:07:36.046Z,9.50
2023-04-19T06:12:42.594Z,9.50
2023-04-19T06:17:44.666Z,9.60
2023-04-19T06:22:46.859Z,9.70
2023-04-19T06:27:49.020Z,9.80
2023-04-19T06:32:51.169Z,10.00
2023-04-19T06:37:53.353Z,10.10
2023-04-19T06:42:55.988Z,10.20
2023-04-19T06:47:58.391Z,10.20
2023-04-19T06:53:01.167Z,10.20
2023-04-19T06:58:04.336Z,10.30
2023-04-19T07:03:06.609Z,10.40
2023-04-19T07:08:08.927Z,10.30
2023-04-19T07:13:11.805Z,10.50
2023-04-19T07:18:16.154Z,10.60
2023-04-19T07:23:19.444Z,10.70
2023-04-19T07:28:21.601Z,10.80
2023-04-19T07:33:27.455Z,10.90
2023-04-19T07:38:30.439Z,11.00
2023-04-19T07:43:32.724Z,11.00
2023-04-19T07:48:34.783Z,11.00
2023-04-19T07:53:37.776Z,11.10
2023-04-19T07:58:41.400Z,11.20
2023-04-19T08:03:43.839Z,11.10
2023-04-19T08:08:46.622Z,11.20
2023-04-19T08:14:02.690Z,11.20
2023-04-19T08:19:08.799Z,11.40
2023-04-19T08:24:11.220Z,11.50
2023-04-19T08:29:13.357Z,11.60
2023-04-19T08:34:15.544Z,11.70
2023-04-19T08:39:29.139Z,11.70
2023-04-19T08:44:45.063Z,11.60
2023-04-19T08:50:11.116Z,11.70
2023-04-19T08:55:20.775Z,12.00
2023-04-19T09:00:23.007Z,12.30
2023-04-19T09:05:25.603Z,12.60
2023-04-19T09:10:27.902Z,12.60
2023-04-19T09:15:41.720Z,12.90
2023-04-19T09:20:44.784Z,12.90
2023-04-19T09:26:21.942Z,13.20
2023-04-19T09:31:39.066Z,13.50
2023-04-19T09:36:46.915Z,13.20
2023-04-19T09:41:53.756Z,13.10
2023-04-19T09:46:56.064Z,13.20
2023-04-19T09:51:58.365Z,13.60
2023-04-19T09:57:01.886Z,14.10
2023-04-19T10:02:06.724Z,14.90
2023-04-19T10:07:29.036Z,15.00
2023-04-19T10:12:52.200Z,15.30
2023-04-19T10:17:55.523Z,15.50
2023-04-19T10:22:57.848Z,15.00
2023-04-19T10:27:59.971Z,15.10
2023-04-19T10:33:03.991Z,15.40
2023-04-19T10:38:16.585Z,15.60
2023-04-19T10:43:19.724Z,15.40
2023-04-19T10:48:32.197Z,15.30
2023-04-19T10:53:47.122Z,15.40
2023-04-19T10:59:01.569Z,15.30
2023-04-19T11:04:04.168Z,15.10
2023-04-19T11:09:07.295Z,16.00
2023-04-19T11:14:10.051Z,16.30
2023-04-19T11:19:16.402Z,16.50
2023-04-19T11:24:19.091Z,16.50
2023-04-19T11:29:21.900Z,17.10
2023-04-19T11:34:24.277Z,17.20
2023-04-19T11:39:26.630Z,16.80
2023-04-19T11:44:28.730Z,16.70
2023-04-19T11:49:33.870Z,16.80
2023-04-19T11:54:36.003Z,17.00
2023-04-19T11:59:39.081Z,17.00
2023-04-19T12:04:41.685Z,16.70
2023-04-19T12:09:44.014Z,16.80
2023-04-19T12:14:52.858Z,16.70
2023-04-19T12:19:54.918Z,16.40
2023-04-19T12:24:57.706Z,16.50
2023-04-19T12:29:59.798Z,16.80
2023-04-19T12:35:01.834Z,16.60
2023-04-19T12:40:04.312Z,16.90
2023-04-19T12:45:06.909Z,17.30
2023-04-19T12:50:09.868Z,17.50
2023-04-19T12:55:12.090Z,17.50
2023-04-19T13:00:15.742Z,17.80
2023-04-19T13:05:17.879Z,17.60
2023-04-19T13:10:21.110Z,17.80
2023-04-19T13:15:23.293Z,17.90
2023-04-19T13:20:25.473Z,18.00
2023-04-19T13:25:27.583Z,17.90
2023-04-19T13:30:29.789Z,18.30
2023-04-19T13:35:31.921Z,18.30
2023-04-19T13:40:34.225Z,18.00
2023-04-19T13:45:36.378Z,18.10
2023-04-19T13:50:38.557Z,17.80
2023-04-19T13:55:41.288Z,18.00
2023-04-19T14:00:44.001Z,17.80
2023-04-19T14:05:46.233Z,17.80
2023-04-19T14:10:49.636Z,18.00
2023-04-19T14:15:51.861Z,17.60
2023-04-19T14:20:54.737Z,17.40
2023-04-19T14:25:56.864Z,17.70
2023-04-19T14:30:58.983Z,17.40
2023-04-19T14:36:01.566Z,17.10
2023-04-19T14:41:03.738Z,17.30
2023-04-19T14:46:07.446Z,17.20
2023-04-19T14:51:09.485Z,17.20
2023-04-19T14:56:11.584Z,17.40
2023-04-19T15:01:14.575Z,17.40
2023-04-19T15:06:17.017Z,17.20
2023-04-19T15:11:19.133Z,17.30
2023-04-19T15:16:21.257Z,17.10
2023-04-19T15:21:24.786Z,17.10
2023-04-19T15:26:27.064Z,17.20
2023-04-19T15:31:29.181Z,17.20
2023-04-19T15:36:31.978Z,17.10
2023-04-19T15:41:34.066Z,17.40
2023-04-19T15:46:36.254Z,17.70
2023-04-19T15:51:39.052Z,17.90
2023-04-19T15:56:41.542Z,18.00
2023-04-19T16:01:43.750Z,17.90
2023-04-19T16:06:45.881Z,17.80
2023-04-19T16:11:47.989Z,17.40
2023-04-19T16:16:50.275Z,17.60
2023-04-19T16:21:52.453Z,17.70
2023-04-19T16:26:54.501Z,17.90
2023-04-19T16:31:57.169Z,17.50
2023-04-19T16:36:59.308Z,18.30
2023-04-19T16:42:01.984Z,18.70
2023-04-19T16:47:04.052Z,18.90
2023-04-19T16:52:06.165Z,18.80
2023-04-19T16:57:08.936Z,18.50
2023-04-19T17:02:11.528Z,18.50
2023-04-19T17:07:13.817Z,18.50
2023-04-19T17:12:15.972Z,18.40
2023-04-19T17:17:21.192Z,18.20
2023-04-19T17:22:23.394Z,18.40
2023-04-19T17:27:25.511Z,18.20
2023-04-19T17:32:27.689Z,18.40
2023-04-19T17:37:30.000Z,17.80
2023-04-19T17:42:32.056Z,17.70
2023-04-19T17:47:34.101Z,17.70
2023-04-19T17:52:36.277Z,17.50
2023-04-19T17:57:38.420Z,17.40
2023-04-19T18:02:40.969Z,17.60
2023-04-19T18:07:43.345Z,17.10
2023-04-19T18:12:45.426Z,17.10
2023-04-19T18:17:47.665Z,16.90
2023-04-19T18:22:50.693Z,16.70
2023-04-19T18:27:52.829Z,16.20
2023-04-19T18:32:55.128Z,15.70
2023-04-19T18:37:57.833Z,15.40
2023-04-19T18:42:59.891Z,15.10
2023-04-19T18:48:02.090Z,14.90
2023-04-19T18:53:04.384Z,14.70
2023-04-19T18:58:07.498Z,14.50
2023-04-19T19:03:33.609Z,14.40
2023-04-19T19:08:32.170Z,14.20
2023-04-19T19:13:34.248Z,14.00
2023-04-19T19:18:36.585Z,13.90
2023-04-19T19:23:42.505Z,13.80
2023-04-19T19:28:44.981Z,13.70
2023-04-19T19:33:53.893Z,13.60
2023-04-19T19:39:11.025Z,13.50
2023-04-19T19:44:13.226Z,13.30
2023-04-19T19:49:15.615Z,13.20
2023-04-19T19:54:17.936Z,13.10
2023-04-19T19:59:20.261Z,13.00
2023-04-19T20:04:23.041Z,13.00
2023-04-19T20:09:27.773Z,12.90
2023-04-19T20:14:30.701Z,12.80
2023-04-19T20:19:32.890Z,12.70
2023-04-19T20:24:35.070Z,12.60
2023-04-19T20:29:37.404Z,12.50
2023-04-19T20:34:39.912Z,12.40
2023-04-19T20:39:41.997Z,12.30
2023-04-19T20:44:44.699Z,12.20
2023-04-19T20:49:46.939Z,12.20
2023-04-19T20:54:49.080Z,12.10
2023-04-19T20:59:51.600Z,12.00
2023-04-19T21:04:53.838Z,12.00
2023-04-19T21:09:55.881Z,11.90
2023-04-19T21:14:58.179Z,11.90
2023-04-19T21:20:02.675Z,11.80
2023-04-19T21:25:05.938Z,11.80
2023-04-19T21:30:09.535Z,11.70
2023-04-19T21:35:11.653Z,11.70
2023-04-19T21:40:14.078Z,11.70
2023-04-19T21:45:16.297Z,11.70
2023-04-19T21:50:18.752Z,11.60
2023-04-19T21:55:20.964Z,11.60
2023-04-19T22:00:24.254Z,11.50
2023-04-19T22:05:26.459Z,11.50
2023-04-19T22:10:28.773Z,11.50
2023-04-19T22:15:31.860Z,11.40
2023-04-19T22:20:34.745Z,11.40
2023-04-19T22:25:37.298Z,11.40
2023-04-19T22:30:39.504Z,11.40
2023-04-19T22:35:41.905Z,11.40
2023-04-19T22:40:43.983Z,11.40
2023-04-19T22:45:47.994Z,11.40
2023-04-19T22:50:52.635Z,11.40
2023-04-19T22:55:54.791Z,11.50
2023-04-19T23:00:56.975Z,11.50
2023-04-19T23:05:59.303Z,11.60
2023-04-19T23:11:01.459Z,11.60
2023-04-19T23:16:04.482Z,11.60
2023-04-19T23:21:06.888Z,11.60
2023-04-19T23:26:09.858Z,11.60
2023-04-19T23:31:12.358Z,11.60
2023-04-19T23:36:14.641Z,11.60
2023-04-19T23:41:17.002Z,11.50
2023-04-19T23:46:19.135Z,11.40
2023-04-19T23:51:21.421Z,11.30
2023-04-19T23:56:23.521Z,11.20
